Ana Sayfa
METAR-TAF:

METAR-TAF

Havaalanları :

Georgetown, Ascension Adası

Enlem: 07-58S, Boylam: 014-24W, yükseklik: 86 m

Güncel hava durumu gözlemi

Rapor saat 20:50 UTC de 9 saat ve 45 dakika önce yapıldı.
Rüzgar güneydoğudan 10 kt
Sıcaklık 25°C
Nem 79%
Basınç 1013 hPa
Görüş mesafesi 10 km veya daha fazla
1600 ft yükseklikte parçalı bulutlu
3500 ft yükseklikte parçalı bulutlu
4400 ft yükseklikte parçalı çok bulutlu

METAR: FHAW 202050Z 13010KT 9999 SCT016 SCT035 BKN044 25/21 Q1013 WHT

Saat: 06:35 (06:35 UTC)


TAF: eksik

4.000'den fazla havaalanı için hava durumu gözlemleri ve tahminleri (METAR ve TAF raporları).

Kullanılabilir istasyonlar harita üzerinde sarı ve kırmızı noktalarla gösterilir.

İstasyonun adını görmek için fareyi noktanın üzerinde gezdirin.

Sonrasında hava gözlem ve tahminlerini görmek için tıklayın.

Haritayı değiştirmek için: yaklaştırmak için siyah artı işaretli yeşil düğmeye ve uzaklaştırmak için de eksi işaretli düğmeye hızla tıklayın; bitişik haritalar için yeşil okları kullanın.


METAR-TAF: